sensor_id;sensor_type;location;lat;lon;timestamp;pressure;altitude;pressure_sealevel;temperature
19196;BMP280;9730;48.926;11.376;2023-07-08T00:00:40;97590.00;;;14.59
19196;BMP280;9730;48.926;11.376;2023-07-08T00:03:08;97591.28;;;14.52
19196;BMP280;9730;48.926;11.376;2023-07-08T00:05:36;97594.31;;;14.71
19196;BMP280;9730;48.926;11.376;2023-07-08T00:08:04;97592.94;;;14.53
19196;BMP280;9730;48.926;11.376;2023-07-08T00:10:32;97594.09;;;14.61
19196;BMP280;9730;48.926;11.376;2023-07-08T00:12:59;97587.06;;;14.79
19196;BMP280;9730;48.926;11.376;2023-07-08T00:15:30;97589.41;;;14.82
19196;BMP280;9730;48.926;11.376;2023-07-08T00:17:59;97582.06;;;14.91
19196;BMP280;9730;48.926;11.376;2023-07-08T00:20:31;97570.00;;;14.94
19196;BMP280;9730;48.926;11.376;2023-07-08T00:22:59;97569.16;;;14.94
19196;BMP280;9730;48.926;11.376;2023-07-08T00:25:28;97566.56;;;14.82
19196;BMP280;9730;48.926;11.376;2023-07-08T00:27:56;97566.94;;;14.76
19196;BMP280;9730;48.926;11.376;2023-07-08T00:30:26;97559.88;;;14.81
19196;BMP280;9730;48.926;11.376;2023-07-08T00:32:55;97557.06;;;14.85
19196;BMP280;9730;48.926;11.376;2023-07-08T00:35:28;97547.13;;;14.94
19196;BMP280;9730;48.926;11.376;2023-07-08T00:37:57;97544.16;;;15.14
19196;BMP280;9730;48.926;11.376;2023-07-08T00:40:29;97530.22;;;15.07
19196;BMP280;9730;48.926;11.376;2023-07-08T00:43:00;97531.59;;;14.99
19196;BMP280;9730;48.926;11.376;2023-07-08T00:45:38;97537.34;;;14.88
19196;BMP280;9730;48.926;11.376;2023-07-08T00:48:18;97548.78;;;14.82
19196;BMP280;9730;48.926;11.376;2023-07-08T00:50:46;97559.88;;;14.81
19196;BMP280;9730;48.926;11.376;2023-07-08T00:53:33;97559.63;;;14.97
19196;BMP280;9730;48.926;11.376;2023-07-08T00:56:04;97565.22;;;14.76
19196;BMP280;9730;48.926;11.376;2023-07-08T00:58:36;97560.72;;;14.67
19196;BMP280;9730;48.926;11.376;2023-07-08T01:01:06;97556.50;;;14.80
19196;BMP280;9730;48.926;11.376;2023-07-08T01:03:40;97553.25;;;14.78
19196;BMP280;9730;48.926;11.376;2023-07-08T01:06:11;97559.78;;;14.82
19196;BMP280;9730;48.926;11.376;2023-07-08T01:08:39;97564.22;;;14.79
19196;BMP280;9730;48.926;11.376;2023-07-08T01:11:07;97559.13;;;14.79
19196;BMP280;9730;48.926;11.376;2023-07-08T01:13:37;97561.06;;;14.75
19196;BMP280;9730;48.926;11.376;2023-07-08T01:16:07;97560.22;;;14.75
19196;BMP280;9730;48.926;11.376;2023-07-08T01:18:36;97566.63;;;14.54
19196;BMP280;9730;48.926;11.376;2023-07-08T01:21:29;97570.63;;;14.44
19196;BMP280;9730;48.926;11.376;2023-07-08T01:23:59;97563.84;;;14.58
19196;BMP280;9730;48.926;11.376;2023-07-08T01:26:29;97561.06;;;14.75
19196;BMP280;9730;48.926;11.376;2023-07-08T01:28:58;97543.53;;;14.58
19196;BMP280;9730;48.926;11.376;2023-07-08T01:31:26;97549.69;;;14.54
19196;BMP280;9730;48.926;11.376;2023-07-08T01:33:54;97558.94;;;14.41
19196;BMP280;9730;48.926;11.376;2023-07-08T01:36:23;97554.03;;;14.52
19196;BMP280;9730;48.926;11.376;2023-07-08T01:38:51;97551.28;;;14.55
19196;BMP280;9730;48.926;11.376;2023-07-08T01:41:20;97558.84;;;14.43
19196;BMP280;9730;48.926;11.376;2023-07-08T01:43:48;97563.84;;;14.31
19196;BMP280;9730;48.926;11.376;2023-07-08T01:46:19;97566.81;;;14.37
19196;BMP280;9730;48.926;11.376;2023-07-08T01:48:50;97570.06;;;14.39
19196;BMP280;9730;48.926;11.376;2023-07-08T01:51:19;97569.47;;;14.35
19196;BMP280;9730;48.926;11.376;2023-07-08T01:53:47;97563.41;;;14.24
19196;BMP280;9730;48.926;11.376;2023-07-08T01:56:16;97569.41;;;13.94
19196;BMP280;9730;48.926;11.376;2023-07-08T01:58:45;97575.53;;;13.62
19196;BMP280;9730;48.926;11.376;2023-07-08T02:01:13;97574.38;;;13.81
19196;BMP280;9730;48.926;11.376;2023-07-08T02:03:40;97577.84;;;13.94
19196;BMP280;9730;48.926;11.376;2023-07-08T02:06:10;97580.66;;;13.90
19196;BMP280;9730;48.926;11.376;2023-07-08T02:08:38;97581.69;;;13.72
19196;BMP280;9730;48.926;11.376;2023-07-08T02:11:05;97571.31;;;13.90
19196;BMP280;9730;48.926;11.376;2023-07-08T02:13:33;97567.88;;;14.05
19196;BMP280;9730;48.926;11.376;2023-07-08T02:16:02;97571.50;;;13.87
19196;BMP280;9730;48.926;11.376;2023-07-08T02:18:30;97578.50;;;13.69
19196;BMP280;9730;48.926;11.376;2023-07-08T02:20:59;97579.88;;;13.74
19196;BMP280;9730;48.926;11.376;2023-07-08T02:23:26;97572.09;;;13.63
19196;BMP280;9730;48.926;11.376;2023-07-08T02:25:58;97563.25;;;13.70
19196;BMP280;9730;48.926;11.376;2023-07-08T02:28:26;97574.09;;;13.72
19196;BMP280;9730;48.926;11.376;2023-07-08T02:30:53;97567.69;;;13.80
19196;BMP280;9730;48.926;11.376;2023-07-08T02:33:22;97562.19;;;13.59
19196;BMP280;9730;48.926;11.376;2023-07-08T02:35:54;97561.47;;;13.57
19196;BMP280;9730;48.926;11.376;2023-07-08T02:38:21;97563.44;;;13.52
19196;BMP280;9730;48.926;11.376;2023-07-08T02:40:49;97565.91;;;13.53
19196;BMP280;9730;48.926;11.376;2023-07-08T02:43:17;97554.69;;;13.57
19196;BMP280;9730;48.926;11.376;2023-07-08T02:45:45;97552.19;;;13.71
19196;BMP280;9730;48.926;11.376;2023-07-08T02:48:12;97558.78;;;13.74
19196;BMP280;9730;48.926;11.376;2023-07-08T02:50:41;97560.06;;;13.67
19196;BMP280;9730;48.926;11.376;2023-07-08T02:53:09;97559.97;;;13.68
19196;BMP280;9730;48.926;11.376;2023-07-08T02:55:38;97563.06;;;13.73
19196;BMP280;9730;48.926;11.376;2023-07-08T02:58:05;97561.38;;;13.58
19196;BMP280;9730;48.926;11.376;2023-07-08T03:00:33;97571.06;;;13.52
19196;BMP280;9730;48.926;11.376;2023-07-08T03:03:04;97567.63;;;13.53
19196;BMP280;9730;48.926;11.376;2023-07-08T03:05:33;97566.63;;;13.55
19196;BMP280;9730;48.926;11.376;2023-07-08T03:08:02;97557.94;;;13.45
19196;BMP280;9730;48.926;11.376;2023-07-08T03:10:29;97559.97;;;13.39
19196;BMP280;9730;48.926;11.376;2023-07-08T03:12:57;97563.09;;;13.28
19196;BMP280;9730;48.926;11.376;2023-07-08T03:15:25;97564.56;;;13.32
19196;BMP280;9730;48.926;11.376;2023-07-08T03:17:53;97562.06;;;13.46
19196;BMP280;9730;48.926;11.376;2023-07-08T03:20:24;97565.97;;;13.23
19196;BMP280;9730;48.926;11.376;2023-07-08T03:22:51;97575.06;;;13.27
19196;BMP280;9730;48.926;11.376;2023-07-08T03:25:20;97568.34;;;13.26
19196;BMP280;9730;48.926;11.376;2023-07-08T03:27:50;97576.06;;;13.38
19196;BMP280;9730;48.926;11.376;2023-07-08T03:30:19;97569.47;;;13.35
19196;BMP280;9730;48.926;11.376;2023-07-08T03:32:49;97566.25;;;13.47
19196;BMP280;9730;48.926;11.376;2023-07-08T03:35:16;97558.09;;;13.56
19196;BMP280;9730;48.926;11.376;2023-07-08T03:37:44;97559.22;;;13.52
19196;BMP280;9730;48.926;11.376;2023-07-08T03:40:12;97557.88;;;13.61
19196;BMP280;9730;48.926;11.376;2023-07-08T03:42:42;97563.97;;;13.43
19196;BMP280;9730;48.926;11.376;2023-07-08T03:45:11;97565.69;;;13.42
19196;BMP280;9730;48.926;11.376;2023-07-08T03:47:39;97565.69;;;13.42
19196;BMP280;9730;48.926;11.376;2023-07-08T03:50:13;97569.22;;;13.25
19196;BMP280;9730;48.926;11.376;2023-07-08T03:52:44;97580.41;;;13.07
19196;BMP280;9730;48.926;11.376;2023-07-08T03:55:12;97579.31;;;13.26
19196;BMP280;9730;48.926;11.376;2023-07-08T03:57:40;97563.75;;;13.32
19196;BMP280;9730;48.926;11.376;2023-07-08T04:00:11;97570.16;;;13.24
19196;BMP280;9730;48.926;11.376;2023-07-08T04:02:40;97577.34;;;13.16
19196;BMP280;9730;48.926;11.376;2023-07-08T04:05:14;97567.50;;;13.40
19196;BMP280;9730;48.926;11.376;2023-07-08T04:07:42;97570.91;;;13.69
19196;BMP280;9730;48.926;11.376;2023-07-08T04:10:11;97572.25;;;13.60
19196;BMP280;9730;48.926;11.376;2023-07-08T04:12:39;97573.66;;;13.50
19196;BMP280;9730;48.926;11.376;2023-07-08T04:15:09;97584.34;;;13.41
19196;BMP280;9730;48.926;11.376;2023-07-08T04:17:41;97589.66;;;13.22
19196;BMP280;9730;48.926;11.376;2023-07-08T04:20:13;97584.44;;;13.25
19196;BMP280;9730;48.926;11.376;2023-07-08T04:22:41;97592.19;;;13.22
19196;BMP280;9730;48.926;11.376;2023-07-08T04:25:10;97593.34;;;13.16
19196;BMP280;9730;48.926;11.376;2023-07-08T04:27:39;97595.75;;;12.88
19196;BMP280;9730;48.926;11.376;2023-07-08T04:30:09;97589.63;;;13.08
19196;BMP280;9730;48.926;11.376;2023-07-08T04:32:42;97579.22;;;13.12
19196;BMP280;9730;48.926;11.376;2023-07-08T04:35:10;97570.06;;;13.25
19196;BMP280;9730;48.926;11.376;2023-07-08T04:37:37;97573.00;;;13.33
19196;BMP280;9730;48.926;11.376;2023-07-08T04:40:09;97576.66;;;13.43
19196;BMP280;9730;48.926;11.376;2023-07-08T04:42:41;97576.56;;;13.44
19196;BMP280;9730;48.926;11.376;2023-07-08T04:45:09;97575.81;;;13.42
19196;BMP280;9730;48.926;11.376;2023-07-08T04:47:37;97581.50;;;13.61
19196;BMP280;9730;48.926;11.376;2023-07-08T04:50:07;97579.53;;;13.66
19196;BMP280;9730;48.926;11.376;2023-07-08T04:52:36;97594.06;;;13.63
19196;BMP280;9730;48.926;11.376;2023-07-08T04:55:04;97590.00;;;13.74
19196;BMP280;9730;48.926;11.376;2023-07-08T04:57:32;97594.56;;;13.83
19196;BMP280;9730;48.926;11.376;2023-07-08T05:00:00;97590.88;;;13.88
19196;BMP280;9730;48.926;11.376;2023-07-08T05:02:28;97591.50;;;13.92
19196;BMP280;9730;48.926;11.376;2023-07-08T05:04:56;97594.31;;;14.01
19196;BMP280;9730;48.926;11.376;2023-07-08T05:07:25;97588.50;;;14.15
19196;BMP280;9730;48.926;11.376;2023-07-08T05:09:53;97593.75;;;14.26
19196;BMP280;9730;48.926;11.376;2023-07-08T05:12:20;97601.19;;;14.29
19196;BMP280;9730;48.926;11.376;2023-07-08T05:14:48;97607.97;;;14.28
19196;BMP280;9730;48.926;11.376;2023-07-08T05:17:16;97615.22;;;13.77
19196;BMP280;9730;48.926;11.376;2023-07-08T05:19:44;97622.81;;;14.06
19196;BMP280;9730;48.926;11.376;2023-07-08T05:22:12;97620.75;;;14.27
19196;BMP280;9730;48.926;11.376;2023-07-08T05:24:41;97616.78;;;14.23
19196;BMP280;9730;48.926;11.376;2023-07-08T05:27:10;97622.75;;;14.22
19196;BMP280;9730;48.926;11.376;2023-07-08T05:29:40;97612.59;;;14.35
19196;BMP280;9730;48.926;11.376;2023-07-08T05:32:08;97612.72;;;14.05
19196;BMP280;9730;48.926;11.376;2023-07-08T05:34:35;97614.69;;;14.00
19196;BMP280;9730;48.926;11.376;2023-07-08T05:37:03;97620.28;;;14.06
19196;BMP280;9730;48.926;11.376;2023-07-08T05:39:31;97621.31;;;14.02
19196;BMP280;9730;48.926;11.376;2023-07-08T05:42:00;97624.28;;;14.24
19196;BMP280;9730;48.926;11.376;2023-07-08T05:44:28;97614.66;;;14.57
19196;BMP280;9730;48.926;11.376;2023-07-08T05:46:56;97610.84;;;15.18
19196;BMP280;9730;48.926;11.376;2023-07-08T05:49:24;97603.84;;;15.47
19196;BMP280;9730;48.926;11.376;2023-07-08T05:51:51;97595.28;;;15.87
19196;BMP280;9730;48.926;11.376;2023-07-08T05:54:19;97582.41;;;16.27
19196;BMP280;9730;48.926;11.376;2023-07-08T05:56:47;97579.41;;;17.17
19196;BMP280;9730;48.926;11.376;2023-07-08T05:59:16;97552.69;;;19.31
19196;BMP280;9730;48.926;11.376;2023-07-08T06:01:44;97509.75;;;21.60
19196;BMP280;9730;48.926;11.376;2023-07-08T06:04:13;97443.72;;;22.96
19196;BMP280;9730;48.926;11.376;2023-07-08T06:06:41;97396.84;;;24.03
19196;BMP280;9730;48.926;11.376;2023-07-08T06:09:08;97359.22;;;24.74
19196;BMP280;9730;48.926;11.376;2023-07-08T06:11:36;97309.00;;;25.94
19196;BMP280;9730;48.926;11.376;2023-07-08T06:14:04;97272.31;;;26.51
19196;BMP280;9730;48.926;11.376;2023-07-08T06:16:33;97270.66;;;26.36
19196;BMP280;9730;48.926;11.376;2023-07-08T06:19:06;97312.94;;;24.97
19196;BMP280;9730;48.926;11.376;2023-07-08T06:21:34;97286.19;;;25.98
19196;BMP280;9730;48.926;11.376;2023-07-08T06:24:01;97307.19;;;26.03
19196;BMP280;9730;48.926;11.376;2023-07-08T06:26:29;97250.44;;;26.76
19196;BMP280;9730;48.926;11.376;2023-07-08T06:28:57;97234.44;;;26.58
19196;BMP280;9730;48.926;11.376;2023-07-08T06:31:24;97252.19;;;27.12
19196;BMP280;9730;48.926;11.376;2023-07-08T06:33:54;97232.72;;;27.45
19196;BMP280;9730;48.926;11.376;2023-07-08T06:36:21;97231.97;;;26.79
19196;BMP280;9730;48.926;11.376;2023-07-08T06:38:49;97265.19;;;26.90
19196;BMP280;9730;48.926;11.376;2023-07-08T06:41:17;97291.56;;;26.49
19196;BMP280;9730;48.926;11.376;2023-07-08T06:43:45;97273.25;;;27.81
19196;BMP280;9730;48.926;11.376;2023-07-08T06:46:15;97259.91;;;28.34
19196;BMP280;9730;48.926;11.376;2023-07-08T06:48:43;97222.59;;;28.55
19196;BMP280;9730;48.926;11.376;2023-07-08T06:51:12;97206.94;;;28.97
19196;BMP280;9730;48.926;11.376;2023-07-08T06:53:40;97191.75;;;29.68
19196;BMP280;9730;48.926;11.376;2023-07-08T06:56:08;97182.88;;;29.50
19196;BMP280;9730;48.926;11.376;2023-07-08T06:58:35;97177.03;;;29.88
19196;BMP280;9730;48.926;11.376;2023-07-08T07:01:03;97194.06;;;30.35
19196;BMP280;9730;48.926;11.376;2023-07-08T07:03:31;97183.88;;;30.72
19196;BMP280;9730;48.926;11.376;2023-07-08T07:05:59;97148.41;;;31.91
19196;BMP280;9730;48.926;11.376;2023-07-08T07:08:28;97127.63;;;31.84
19196;BMP280;9730;48.926;11.376;2023-07-08T07:10:55;97167.78;;;31.20
19196;BMP280;9730;48.926;11.376;2023-07-08T07:13:23;97154.47;;;31.41
19196;BMP280;9730;48.926;11.376;2023-07-08T07:15:51;97147.25;;;30.55
19196;BMP280;9730;48.926;11.376;2023-07-08T07:18:19;97079.44;;;31.63
19196;BMP280;9730;48.926;11.376;2023-07-08T07:20:48;97039.03;;;33.86
19196;BMP280;9730;48.926;11.376;2023-07-08T07:23:17;97082.06;;;32.95
19196;BMP280;9730;48.926;11.376;2023-07-08T07:25:46;97074.94;;;33.38
19196;BMP280;9730;48.926;11.376;2023-07-08T07:28:15;97078.69;;;33.13
19196;BMP280;9730;48.926;11.376;2023-07-08T07:30:43;97073.81;;;32.80
19196;BMP280;9730;48.926;11.376;2023-07-08T07:33:12;97064.28;;;33.22
19196;BMP280;9730;48.926;11.376;2023-07-08T07:35:43;97139.00;;;31.90
19196;BMP280;9730;48.926;11.376;2023-07-08T07:38:11;97124.06;;;31.72
19196;BMP280;9730;48.926;11.376;2023-07-08T07:40:39;97184.50;;;31.57
19196;BMP280;9730;48.926;11.376;2023-07-08T07:43:09;97149.66;;;30.30
19196;BMP280;9730;48.926;11.376;2023-07-08T07:45:37;97115.72;;;32.43
19196;BMP280;9730;48.926;11.376;2023-07-08T07:48:04;97080.69;;;33.29
19196;BMP280;9730;48.926;11.376;2023-07-08T07:50:33;97072.13;;;33.22
19196;BMP280;9730;48.926;11.376;2023-07-08T07:53:01;97133.44;;;31.49
19196;BMP280;9730;48.926;11.376;2023-07-08T07:55:29;97155.97;;;31.18
19196;BMP280;9730;48.926;11.376;2023-07-08T07:57:57;97163.66;;;30.61
19196;BMP280;9730;48.926;11.376;2023-07-08T08:00:26;97188.19;;;29.82
19196;BMP280;9730;48.926;11.376;2023-07-08T08:02:53;97215.81;;;29.89
19196;BMP280;9730;48.926;11.376;2023-07-08T08:05:21;97189.47;;;30.31
19196;BMP280;9730;48.926;11.376;2023-07-08T08:07:49;97237.63;;;29.21
19196;BMP280;9730;48.926;11.376;2023-07-08T08:10:17;97230.78;;;29.41
19196;BMP280;9730;48.926;11.376;2023-07-08T08:12:44;97244.19;;;29.84
19196;BMP280;9730;48.926;11.376;2023-07-08T08:15:19;97239.53;;;30.59
19196;BMP280;9730;48.926;11.376;2023-07-08T08:17:49;97307.78;;;29.54
19196;BMP280;9730;48.926;11.376;2023-07-08T08:20:19;97235.09;;;30.33
19196;BMP280;9730;48.926;11.376;2023-07-08T08:22:47;97157.44;;;32.74
19196;BMP280;9730;48.926;11.376;2023-07-08T08:25:15;97199.72;;;32.03
19196;BMP280;9730;48.926;11.376;2023-07-08T08:27:43;97155.34;;;32.10
19196;BMP280;9730;48.926;11.376;2023-07-08T08:30:11;97147.19;;;32.24
19196;BMP280;9730;48.926;11.376;2023-07-08T08:32:39;97178.16;;;32.69
19196;BMP280;9730;48.926;11.376;2023-07-08T08:35:09;97126.13;;;32.92
19196;BMP280;9730;48.926;11.376;2023-07-08T08:37:37;97166.56;;;32.10
19196;BMP280;9730;48.926;11.376;2023-07-08T08:40:06;97186.06;;;31.71
19196;BMP280;9730;48.926;11.376;2023-07-08T08:42:39;97177.31;;;31.89
19196;BMP280;9730;48.926;11.376;2023-07-08T08:45:11;97184.19;;;31.27
19196;BMP280;9730;48.926;11.376;2023-07-08T08:47:42;97189.59;;;31.76
19196;BMP280;9730;48.926;11.376;2023-07-08T08:50:24;97187.19;;;31.81
19196;BMP280;9730;48.926;11.376;2023-07-08T08:52:54;97183.69;;;32.00
19196;BMP280;9730;48.926;11.376;2023-07-08T08:55:24;97203.34;;;31.59
19196;BMP280;9730;48.926;11.376;2023-07-08T08:57:59;97223.09;;;31.16
19196;BMP280;9730;48.926;11.376;2023-07-08T09:00:37;97260.59;;;29.91
19196;BMP280;9730;48.926;11.376;2023-07-08T09:03:10;97267.34;;;29.79
19196;BMP280;9730;48.926;11.376;2023-07-08T09:05:40;97304.28;;;29.14
19196;BMP280;9730;48.926;11.376;2023-07-08T09:08:13;97307.94;;;29.19
19196;BMP280;9730;48.926;11.376;2023-07-08T09:10:45;97310.50;;;29.40
19196;BMP280;9730;48.926;11.376;2023-07-08T09:13:17;97322.69;;;28.92
19196;BMP280;9730;48.926;11.376;2023-07-08T09:15:48;97303.25;;;29.63
19196;BMP280;9730;48.926;11.376;2023-07-08T09:18:23;97306.91;;;29.14
19196;BMP280;9730;48.926;11.376;2023-07-08T09:20:55;97299.38;;;29.52
19196;BMP280;9730;48.926;11.376;2023-07-08T09:23:26;97328.44;;;29.69
19196;BMP280;9730;48.926;11.376;2023-07-08T09:25:58;97311.00;;;29.97
19196;BMP280;9730;48.926;11.376;2023-07-08T09:28:37;97304.31;;;29.81
19196;BMP280;9730;48.926;11.376;2023-07-08T09:31:07;97315.53;;;30.35
19196;BMP280;9730;48.926;11.376;2023-07-08T09:33:38;97301.56;;;30.42
19196;BMP280;9730;48.926;11.376;2023-07-08T09:36:18;97308.16;;;30.45
19196;BMP280;9730;48.926;11.376;2023-07-08T09:38:48;97309.16;;;30.37
19196;BMP280;9730;48.926;11.376;2023-07-08T09:41:29;97328.44;;;30.88
19196;BMP280;9730;48.926;11.376;2023-07-08T09:44:05;97279.41;;;31.86
19196;BMP280;9730;48.926;11.376;2023-07-08T09:46:36;97300.03;;;31.06
19196;BMP280;9730;48.926;11.376;2023-07-08T09:49:19;97335.84;;;29.11
19196;BMP280;9730;48.926;11.376;2023-07-08T09:51:51;97372.66;;;29.21
19196;BMP280;9730;48.926;11.376;2023-07-08T09:54:20;97324.81;;;30.69
19196;BMP280;9730;48.926;11.376;2023-07-08T09:56:57;97287.97;;;31.37
19196;BMP280;9730;48.926;11.376;2023-07-08T09:59:31;97279.28;;;31.69
19196;BMP280;9730;48.926;11.376;2023-07-08T10:02:01;97374.41;;;29.14
19196;BMP280;9730;48.926;11.376;2023-07-08T10:04:30;97373.06;;;29.45
19196;BMP280;9730;48.926;11.376;2023-07-08T10:06:59;97377.19;;;29.12
19196;BMP280;9730;48.926;11.376;2023-07-08T10:09:27;97414.75;;;27.53
19196;BMP280;9730;48.926;11.376;2023-07-08T10:12:00;97405.31;;;28.18
19196;BMP280;9730;48.926;11.376;2023-07-08T10:14:33;97417.00;;;27.99
19196;BMP280;9730;48.926;11.376;2023-07-08T10:17:02;97409.78;;;28.24
19196;BMP280;9730;48.926;11.376;2023-07-08T10:19:30;97397.78;;;28.72
19196;BMP280;9730;48.926;11.376;2023-07-08T10:22:11;97403.03;;;28.64
19196;BMP280;9730;48.926;11.376;2023-07-08T10:24:51;97392.66;;;28.79
19196;BMP280;9730;48.926;11.376;2023-07-08T10:27:25;97402.78;;;28.39
19196;BMP280;9730;48.926;11.376;2023-07-08T10:30:03;97403.88;;;28.65
19196;BMP280;9730;48.926;11.376;2023-07-08T10:32:44;97384.38;;;28.90
19196;BMP280;9730;48.926;11.376;2023-07-08T10:35:17;97374.03;;;29.38
19196;BMP280;9730;48.926;11.376;2023-07-08T10:37:57;97357.91;;;29.82
19196;BMP280;9730;48.926;11.376;2023-07-08T10:40:34;97316.03;;;30.70
19196;BMP280;9730;48.926;11.376;2023-07-08T10:43:16;97272.28;;;31.63
19196;BMP280;9730;48.926;11.376;2023-07-08T10:45:54;97265.59;;;32.60
19196;BMP280;9730;48.926;11.376;2023-07-08T10:51:16;97215.56;;;33.94
19196;BMP280;9730;48.926;11.376;2023-07-08T10:54:03;97190.75;;;34.78
19196;BMP280;9730;48.926;11.376;2023-07-08T10:56:37;97179.91;;;34.75
19196;BMP280;9730;48.926;11.376;2023-07-08T10:59:31;97209.56;;;33.05
19196;BMP280;9730;48.926;11.376;2023-07-08T11:02:18;97200.38;;;33.20
19196;BMP280;9730;48.926;11.376;2023-07-08T11:04:56;97253.63;;;31.66
19196;BMP280;9730;48.926;11.376;2023-07-08T11:07:32;97268.72;;;31.44
19196;BMP280;9730;48.926;11.376;2023-07-08T11:10:10;97252.97;;;31.76
19196;BMP280;9730;48.926;11.376;2023-07-08T11:12:42;97269.56;;;30.80
19196;BMP280;9730;48.926;11.376;2023-07-08T11:15:16;97282.03;;;30.98
19196;BMP280;9730;48.926;11.376;2023-07-08T11:17:49;97310.72;;;28.91
19196;BMP280;9730;48.926;11.376;2023-07-08T11:20:22;97343.81;;;29.64
19196;BMP280;9730;48.926;11.376;2023-07-08T11:22:56;97318.66;;;30.11
19196;BMP280;9730;48.926;11.376;2023-07-08T11:25:27;97299.38;;;30.46
19196;BMP280;9730;48.926;11.376;2023-07-08T11:27:56;97315.69;;;30.27
19196;BMP280;9730;48.926;11.376;2023-07-08T11:30:29;97322.00;;;30.45
19196;BMP280;9730;48.926;11.376;2023-07-08T11:33:00;97299.00;;;31.19
19196;BMP280;9730;48.926;11.376;2023-07-08T11:35:36;97263.50;;;31.44
19196;BMP280;9730;48.926;11.376;2023-07-08T11:38:10;97267.25;;;31.68
19196;BMP280;9730;48.926;11.376;2023-07-08T11:40:52;97261.53;;;31.96
19196;BMP280;9730;48.926;11.376;2023-07-08T11:43:21;97251.69;;;31.35
19196;BMP280;9730;48.926;11.376;2023-07-08T11:45:50;97300.59;;;30.50
19196;BMP280;9730;48.926;11.376;2023-07-08T11:48:22;97303.00;;;30.51
19196;BMP280;9730;48.926;11.376;2023-07-08T11:50:51;97280.75;;;31.32
19196;BMP280;9730;48.926;11.376;2023-07-08T11:53:38;97244.19;;;31.71
19196;BMP280;9730;48.926;11.376;2023-07-08T11:56:20;97259.16;;;30.80
19196;BMP280;9730;48.926;11.376;2023-07-08T11:59:09;97289.19;;;30.76
19196;BMP280;9730;48.926;11.376;2023-07-08T12:01:41;97264.53;;;31.30
19196;BMP280;9730;48.926;11.376;2023-07-08T12:07:10;97230.22;;;31.40
19196;BMP280;9730;48.926;11.376;2023-07-08T12:09:45;97242.78;;;31.69
19196;BMP280;9730;48.926;11.376;2023-07-08T12:12:22;97223.31;;;32.15
19196;BMP280;9730;48.926;11.376;2023-07-08T12:14:53;97207.53;;;32.03
19196;BMP280;9730;48.926;11.376;2023-07-08T12:17:26;97206.03;;;32.51
19196;BMP280;9730;48.926;11.376;2023-07-08T12:19:55;97193.19;;;32.91
19196;BMP280;9730;48.926;11.376;2023-07-08T12:22:25;97199.31;;;31.63
19196;BMP280;9730;48.926;11.376;2023-07-08T12:24:53;97192.53;;;31.92
19196;BMP280;9730;48.926;11.376;2023-07-08T12:27:23;97213.09;;;32.13
19196;BMP280;9730;48.926;11.376;2023-07-08T12:29:50;97199.03;;;31.77
19196;BMP280;9730;48.926;11.376;2023-07-08T12:32:18;97143.69;;;31.38
19196;BMP280;9730;48.926;11.376;2023-07-08T12:34:49;97080.94;;;30.89
19196;BMP280;9730;48.926;11.376;2023-07-08T12:37:17;97084.25;;;30.46
19196;BMP280;9730;48.926;11.376;2023-07-08T12:39:54;97007.38;;;31.07
19196;BMP280;9730;48.926;11.376;2023-07-08T12:42:23;97063.03;;;31.12
19196;BMP280;9730;48.926;11.376;2023-07-08T12:44:51;97112.00;;;31.41
19196;BMP280;9730;48.926;11.376;2023-07-08T12:47:20;97117.56;;;31.07
19196;BMP280;9730;48.926;11.376;2023-07-08T12:49:47;97107.66;;;31.22
19196;BMP280;9730;48.926;11.376;2023-07-08T12:52:20;97121.78;;;31.82
19196;BMP280;9730;48.926;11.376;2023-07-08T12:54:49;97110.72;;;31.63
19196;BMP280;9730;48.926;11.376;2023-07-08T12:57:17;97160.50;;;30.40
19196;BMP280;9730;48.926;11.376;2023-07-08T12:59:47;97191.97;;;29.79
19196;BMP280;9730;48.926;11.376;2023-07-08T13:02:17;97211.63;;;29.48
19196;BMP280;9730;48.926;11.376;2023-07-08T13:04:49;97160.66;;;30.77
19196;BMP280;9730;48.926;11.376;2023-07-08T13:07:28;97135.72;;;31.70
19196;BMP280;9730;48.926;11.376;2023-07-08T13:10:00;97113.72;;;31.16
19196;BMP280;9730;48.926;11.376;2023-07-08T13:12:28;97121.69;;;30.45
19196;BMP280;9730;48.926;11.376;2023-07-08T13:14:58;97094.41;;;31.73
19196;BMP280;9730;48.926;11.376;2023-07-08T13:17:26;97076.59;;;31.95
19196;BMP280;9730;48.926;11.376;2023-07-08T13:19:55;97113.88;;;31.65
19196;BMP280;9730;48.926;11.376;2023-07-08T13:22:24;97106.91;;;31.89
19196;BMP280;9730;48.926;11.376;2023-07-08T13:24:59;97080.50;;;32.34
19196;BMP280;9730;48.926;11.376;2023-07-08T13:27:27;97053.75;;;32.63
19196;BMP280;9730;48.926;11.376;2023-07-08T13:29:56;97054.50;;;33.17
19196;BMP280;9730;48.926;11.376;2023-07-08T13:32:32;97047.38;;;31.86
19196;BMP280;9730;48.926;11.376;2023-07-08T13:34:59;97076.31;;;32.09
19196;BMP280;9730;48.926;11.376;2023-07-08T13:37:30;97082.56;;;31.71
19196;BMP280;9730;48.926;11.376;2023-07-08T13:39:58;97071.47;;;31.82
19196;BMP280;9730;48.926;11.376;2023-07-08T13:42:26;97090.25;;;30.08
19196;BMP280;9730;48.926;11.376;2023-07-08T13:44:54;97115.63;;;30.64
19196;BMP280;9730;48.926;11.376;2023-07-08T13:47:27;97090.16;;;31.42
19196;BMP280;9730;48.926;11.376;2023-07-08T13:49:59;97099.81;;;30.78
19196;BMP280;9730;48.926;11.376;2023-07-08T13:52:28;97098.69;;;31.62
19196;BMP280;9730;48.926;11.376;2023-07-08T13:54:59;97083.56;;;32.01
19196;BMP280;9730;48.926;11.376;2023-07-08T13:57:31;97081.63;;;32.63
19196;BMP280;9730;48.926;11.376;2023-07-08T13:59:59;97075.34;;;32.52
19196;BMP280;9730;48.926;11.376;2023-07-08T14:02:43;97031.44;;;32.96
19196;BMP280;9730;48.926;11.376;2023-07-08T14:05:12;97042.47;;;32.80
19196;BMP280;9730;48.926;11.376;2023-07-08T14:07:40;97037.16;;;32.33
19196;BMP280;9730;48.926;11.376;2023-07-08T14:10:10;97058.91;;;30.98
19196;BMP280;9730;48.926;11.376;2023-07-08T14:12:38;97050.56;;;31.20
19196;BMP280;9730;48.926;11.376;2023-07-08T14:15:07;97044.41;;;31.52
19196;BMP280;9730;48.926;11.376;2023-07-08T14:17:38;97049.22;;;31.79
19196;BMP280;9730;48.926;11.376;2023-07-08T14:20:11;97044.81;;;31.80
19196;BMP280;9730;48.926;11.376;2023-07-08T14:22:39;97013.56;;;32.04
19196;BMP280;9730;48.926;11.376;2023-07-08T14:25:09;97044.31;;;30.91
19196;BMP280;9730;48.926;11.376;2023-07-08T14:27:37;97044.03;;;31.42
19196;BMP280;9730;48.926;11.376;2023-07-08T14:30:08;97059.13;;;31.95
19196;BMP280;9730;48.926;11.376;2023-07-08T14:32:36;97027.06;;;32.19